createdAt,value
2023-05-04T00:00:08.408Z,0.0
2023-05-04T00:05:08.483Z,0.0
2023-05-04T00:10:08.693Z,0.0
2023-05-04T00:15:08.812Z,0.0
2023-05-04T00:20:08.800Z,0.0
2023-05-04T00:25:08.777Z,0.0
2023-05-04T00:30:10.650Z,0.0
2023-05-04T00:35:08.665Z,0.0
2023-05-04T00:40:08.677Z,0.0
2023-05-04T00:45:08.660Z,0.0
2023-05-04T00:50:08.636Z,0.0
2023-05-04T00:55:08.644Z,0.0
2023-05-04T01:00:08.642Z,0.0
2023-05-04T01:05:09.042Z,0.0
2023-05-04T01:10:08.109Z,0.0
2023-05-04T01:15:08.142Z,0.0
2023-05-04T01:20:08.171Z,0.0
2023-05-04T01:25:08.152Z,0.0
2023-05-04T01:30:08.138Z,0.0
2023-05-04T01:35:08.102Z,0.0
2023-05-04T01:40:08.251Z,0.0
2023-05-04T01:45:08.233Z,0.0
2023-05-04T01:50:08.250Z,0.0
2023-05-04T01:55:08.222Z,0.0
2023-05-04T02:00:08.334Z,0.0
2023-05-04T02:05:08.371Z,0.0
2023-05-04T02:10:08.373Z,0.0
2023-05-04T02:15:08.397Z,0.0
2023-05-04T02:20:08.388Z,0.0
2023-05-04T02:25:08.383Z,0.0
2023-05-04T02:30:08.378Z,0.0
2023-05-04T02:35:08.396Z,0.0
2023-05-04T02:40:08.429Z,0.0
2023-05-04T02:45:08.418Z,0.0
2023-05-04T02:50:08.813Z,0.0
2023-05-04T02:55:08.871Z,0.0
2023-05-04T03:00:08.878Z,0.0
2023-05-04T03:05:08.908Z,0.0
2023-05-04T03:10:09.034Z,0.0
2023-05-04T03:15:08.096Z,0.0
2023-05-04T03:20:08.357Z,0.0
2023-05-04T03:25:08.490Z,0.0
2023-05-04T03:30:08.490Z,0.0
2023-05-04T03:35:08.521Z,0.0
2023-05-04T03:40:08.541Z,0.0
2023-05-04T03:45:08.552Z,0.0
2023-05-04T03:50:08.545Z,0.0
2023-05-04T03:55:08.552Z,0.0
2023-05-04T04:00:08.532Z,0.0
2023-05-04T04:05:02.576Z,0.0
2023-05-04T04:10:02.936Z,0.0
2023-05-04T04:15:02.272Z,0.0
2023-05-04T04:20:02.612Z,0.0
2023-05-04T04:25:02.792Z,0.0
2023-05-04T04:30:02.953Z,0.0
2023-05-04T04:35:02.122Z,0.0
2023-05-04T04:40:02.334Z,0.0
2023-05-04T04:45:02.541Z,0.0
2023-05-04T04:50:02.774Z,0.0
2023-05-04T04:55:03.049Z,0.0
2023-05-04T05:00:02.319Z,0.0
2023-05-04T05:05:02.597Z,0.0
2023-05-04T05:10:02.838Z,0.0
2023-05-04T05:15:03.068Z,0.0
2023-05-04T05:20:02.398Z,0.0
2023-05-04T05:25:02.640Z,0.0
2023-05-04T05:30:02.897Z,0.0
2023-05-04T05:35:02.055Z,0.0
2023-05-04T05:40:02.313Z,0.0
2023-05-04T05:45:02.525Z,0.0
2023-05-04T05:50:02.886Z,0.0
2023-05-04T05:55:02.934Z,0.0
2023-05-04T06:00:02.209Z,0.0
2023-05-04T06:05:02.526Z,0.0
2023-05-04T06:10:02.822Z,0.0
2023-05-04T06:15:02.038Z,0.0
2023-05-04T06:20:02.185Z,0.0
2023-05-04T06:25:05.065Z,0.0
2023-05-04T06:30:02.162Z,1.0
2023-05-04T06:35:02.346Z,1.0
2023-05-04T06:40:02.602Z,0.0
2023-05-04T06:45:02.742Z,0.0
2023-05-04T06:50:03.063Z,0.0
2023-05-04T06:55:02.266Z,0.0
2023-05-04T07:00:02.401Z,0.0
2023-05-04T07:05:02.750Z,0.0
2023-05-04T07:10:03.807Z,0.0
2023-05-04T07:15:02.095Z,0.0
2023-05-04T07:20:02.483Z,0.0
2023-05-04T07:25:02.778Z,0.0
2023-05-04T07:30:03.106Z,1.4
2023-05-04T07:35:02.694Z,1.4
2023-05-04T07:40:02.938Z,0.0
2023-05-04T07:45:02.232Z,0.0
2023-05-04T07:50:02.465Z,1.3
2023-05-04T07:55:02.545Z,1.3
2023-05-04T08:00:02.835Z,0.0
2023-05-04T08:05:02.144Z,0.0
2023-05-04T08:10:02.420Z,0.0
2023-05-04T08:15:02.781Z,0.0
2023-05-04T08:20:02.946Z,0.0
2023-05-04T08:25:02.158Z,0.0
2023-05-04T08:30:02.283Z,0.0
2023-05-04T08:35:02.558Z,0.0
2023-05-04T08:40:02.744Z,0.0
2023-05-04T08:45:02.930Z,0.0
2023-05-04T08:50:02.249Z,0.0
2023-05-04T08:55:02.426Z,0.0
2023-05-04T09:00:02.555Z,0.0
2023-05-04T09:05:02.648Z,0.0
2023-05-04T09:10:02.886Z,0.0
2023-05-04T09:15:03.164Z,0.0
2023-05-04T09:20:02.433Z,0.0
2023-05-04T09:25:02.677Z,0.0
2023-05-04T09:30:02.992Z,0.0
2023-05-04T09:35:02.376Z,0.0
2023-05-04T09:40:02.790Z,0.0
2023-05-04T09:45:03.378Z,1.2
2023-05-04T09:50:02.956Z,1.2
2023-05-04T09:55:02.442Z,0.0
2023-05-04T10:00:02.689Z,0.0
2023-05-04T10:05:02.977Z,0.0
2023-05-04T10:10:02.251Z,1.1
2023-05-04T10:15:02.426Z,1.1
2023-05-04T10:20:08.991Z,0.0
2023-05-04T10:25:02.121Z,0.0
2023-05-04T10:30:02.317Z,0.0
2023-05-04T10:35:02.446Z,0.0
2023-05-04T10:40:02.649Z,0.0
2023-05-04T10:45:02.897Z,0.0
2023-05-04T10:50:02.188Z,1.0
2023-05-04T10:55:02.456Z,1.0
2023-05-04T11:00:02.760Z,0.0
2023-05-04T11:05:03.009Z,0.0
2023-05-04T11:10:02.231Z,0.0
2023-05-04T11:15:02.440Z,0.0
2023-05-04T11:20:02.623Z,0.8
2023-05-04T11:25:02.856Z,0.8
2023-05-04T11:30:02.026Z,0.0
2023-05-04T11:35:02.228Z,0.0
2023-05-04T11:40:02.317Z,1.9
2023-05-04T11:45:02.409Z,1.9
2023-05-04T11:50:02.606Z,0.0
2023-05-04T11:55:02.783Z,0.0
2023-05-04T12:00:02.990Z,0.0
2023-05-04T12:05:02.090Z,0.0
2023-05-04T12:10:02.275Z,0.0
2023-05-04T12:15:02.362Z,0.0
2023-05-04T12:20:02.538Z,0.0
2023-05-04T12:25:02.649Z,0.0
2023-05-04T12:30:02.767Z,1.1
2023-05-04T12:35:02.909Z,1.1
2023-05-04T12:40:05.554Z,0.0
2023-05-04T12:45:02.205Z,0.0
2023-05-04T12:50:02.243Z,1.1
2023-05-04T12:55:02.319Z,1.1
2023-05-04T13:00:02.463Z,0.0
2023-05-04T13:05:02.549Z,0.0
2023-05-04T13:10:02.647Z,1.3
2023-05-04T13:15:02.742Z,1.3
2023-05-04T13:20:02.785Z,0.0
2023-05-04T13:25:02.896Z,0.0
2023-05-04T13:30:02.936Z,1.3
2023-05-04T13:35:03.075Z,1.3
2023-05-04T13:40:02.181Z,2.1
2023-05-04T13:45:02.242Z,2.1
2023-05-04T13:50:02.383Z,1.1
2023-05-04T13:55:02.510Z,1.1
2023-05-04T14:00:07.517Z,2.4
2023-05-04T14:05:02.389Z,2.4
2023-05-04T14:10:03.050Z,1.5
2023-05-04T14:15:02.178Z,1.5
2023-05-04T14:20:02.348Z,1.2
2023-05-04T14:25:02.387Z,1.2
2023-05-04T14:30:02.453Z,1.0
2023-05-04T14:35:02.583Z,1.0
2023-05-04T14:40:02.755Z,3.0
2023-05-04T14:45:02.849Z,3.0
2023-05-04T14:50:02.991Z,1.7
2023-05-04T14:55:02.118Z,1.7
2023-05-04T15:00:02.211Z,1.8
2023-05-04T15:05:02.290Z,1.8
2023-05-04T15:10:02.369Z,1.9
2023-05-04T15:15:02.445Z,1.9
2023-05-04T15:20:02.552Z,2.4
2023-05-04T15:25:02.739Z,2.5
2023-05-04T15:30:02.874Z,2.5
2023-05-04T15:35:05.695Z,1.6
2023-05-04T15:40:02.790Z,1.6
2023-05-04T15:45:02.117Z,2.6
2023-05-04T15:50:02.387Z,2.6
2023-05-04T15:55:12.879Z,1.2
2023-05-04T16:00:02.325Z,1.6
2023-05-04T16:05:02.440Z,1.6
2023-05-04T16:10:02.586Z,3.4
2023-05-04T16:15:02.734Z,3.4
2023-05-04T16:20:02.903Z,2.1
2023-05-04T16:25:03.007Z,2.1
2023-05-04T16:30:02.106Z,1.5
2023-05-04T16:35:02.260Z,1.5
2023-05-04T16:40:02.465Z,1.8
2023-05-04T16:45:02.657Z,1.8
2023-05-04T16:50:02.787Z,1.5
2023-05-04T16:55:02.878Z,1.5
2023-05-04T17:00:02.919Z,1.9
2023-05-04T17:05:02.956Z,1.9
2023-05-04T17:10:02.149Z,1.7
2023-05-04T17:15:02.217Z,1.7
2023-05-04T17:20:02.362Z,2.8
2023-05-04T17:25:02.469Z,2.8
2023-05-04T17:30:02.666Z,2.8
2023-05-04T17:35:15.847Z,2.8
2023-05-04T17:40:02.926Z,1.5
2023-05-04T17:45:03.076Z,1.5
2023-05-04T17:50:02.183Z,1.8
2023-05-04T17:55:02.380Z,1.8
2023-05-04T18:00:02.589Z,2.0
2023-05-04T18:05:02.754Z,2.0
2023-05-04T18:10:02.926Z,1.5
2023-05-04T18:15:02.221Z,1.5
2023-05-04T18:20:02.328Z,1.0
2023-05-04T18:25:02.486Z,1.0
2023-05-04T18:30:02.623Z,1.1
2023-05-04T18:35:02.755Z,1.1
2023-05-04T18:40:02.886Z,0.0
2023-05-04T18:45:03.075Z,0.0
2023-05-04T18:50:02.219Z,0.0
2023-05-04T18:55:02.376Z,0.0
2023-05-04T19:00:02.509Z,0.0
2023-05-04T19:05:02.662Z,0.0
2023-05-04T19:10:02.770Z,0.0
2023-05-04T19:15:02.899Z,0.0
2023-05-04T19:20:03.034Z,0.0
2023-05-04T19:25:02.166Z,0.0
2023-05-04T19:30:02.310Z,0.0
2023-05-04T19:35:02.422Z,0.0
2023-05-04T19:40:02.611Z,0.0
2023-05-04T19:45:02.769Z,0.0
2023-05-04T19:50:02.959Z,0.0
2023-05-04T19:55:02.089Z,0.0
2023-05-04T20:00:02.190Z,0.0
2023-05-04T20:05:02.342Z,0.0
2023-05-04T20:10:02.433Z,0.0
2023-05-04T20:15:02.506Z,0.0
2023-05-04T20:20:02.618Z,0.0
2023-05-04T20:25:02.638Z,0.0
2023-05-04T20:30:02.798Z,0.0
2023-05-04T20:35:02.931Z,0.0
2023-05-04T20:40:02.108Z,0.0
2023-05-04T20:45:02.214Z,0.0
2023-05-04T20:50:02.307Z,0.0
2023-05-04T20:55:02.393Z,0.0
2023-05-04T21:00:02.455Z,0.0
2023-05-04T21:05:08.430Z,0.0
2023-05-04T21:10:08.840Z,0.0
2023-05-04T21:15:07.917Z,0.0
2023-05-04T21:20:09.298Z,0.0
2023-05-04T21:25:08.490Z,0.0
2023-05-04T21:30:08.792Z,0.0
2023-05-04T21:35:07.955Z,0.0
2023-05-04T21:40:08.331Z,0.0
2023-05-04T21:45:08.478Z,0.0
2023-05-04T21:50:08.714Z,0.0
2023-05-04T21:55:08.899Z,0.0
2023-05-04T22:00:09.204Z,0.0
2023-05-04T22:05:08.335Z,0.0
2023-05-04T22:10:08.542Z,0.0
2023-05-04T22:15:08.687Z,0.0
2023-05-04T22:20:08.956Z,0.0
2023-05-04T22:25:08.153Z,0.0
2023-05-04T22:30:08.497Z,0.0
2023-05-04T22:35:08.747Z,0.0
2023-05-04T22:40:08.987Z,0.0
2023-05-04T22:45:08.141Z,0.0
2023-05-04T22:50:08.376Z,0.0
2023-05-04T22:55:08.669Z,0.0
2023-05-04T23:01:15.986Z,0.0
2023-05-04T23:05:08.013Z,0.0
2023-05-04T23:10:08.375Z,0.0
2023-05-04T23:15:08.515Z,0.0
2023-05-04T23:20:08.865Z,0.0
2023-05-04T23:25:08.220Z,0.0
2023-05-04T23:30:08.500Z,0.0
2023-05-04T23:35:08.695Z,0.0
2023-05-04T23:40:08.952Z,0.0
2023-05-04T23:45:08.159Z,0.0
2023-05-04T23:50:08.317Z,0.0
2023-05-04T23:55:08.424Z,0.0
